sensor_id;sensor_type;location;lat;lon;timestamp;temperature;humidity
17348;DHT22;8791;50.876;4.342;2023-05-10T00:01:09;13.60;99.90
17348;DHT22;8791;50.876;4.342;2023-05-10T00:03:36;13.70;99.90
17348;DHT22;8791;50.876;4.342;2023-05-10T00:06:03;13.60;99.90
17348;DHT22;8791;50.876;4.342;2023-05-10T00:08:30;13.60;99.90
17348;DHT22;8791;50.876;4.342;2023-05-10T00:10:58;13.60;99.90
17348;DHT22;8791;50.876;4.342;2023-05-10T00:13:25;13.70;99.90
17348;DHT22;8791;50.876;4.342;2023-05-10T00:15:52;13.60;99.90
17348;DHT22;8791;50.876;4.342;2023-05-10T00:18:19;13.60;99.90
17348;DHT22;8791;50.876;4.342;2023-05-10T00:20:46;13.60;99.90
17348;DHT22;8791;50.876;4.342;2023-05-10T00:23:14;13.70;99.90
17348;DHT22;8791;50.876;4.342;2023-05-10T00:25:41;13.80;99.90
17348;DHT22;8791;50.876;4.342;2023-05-10T00:28:09;13.80;99.90
17348;DHT22;8791;50.876;4.342;2023-05-10T00:30:36;13.70;99.90
17348;DHT22;8791;50.876;4.342;2023-05-10T00:33:03;13.80;99.90
17348;DHT22;8791;50.876;4.342;2023-05-10T00:35:30;13.80;99.90
17348;DHT22;8791;50.876;4.342;2023-05-10T00:37:57;13.80;99.90
17348;DHT22;8791;50.876;4.342;2023-05-10T00:40:24;13.80;99.90
17348;DHT22;8791;50.876;4.342;2023-05-10T00:42:51;13.70;99.90
17348;DHT22;8791;50.876;4.342;2023-05-10T00:45:20;13.70;99.90
17348;DHT22;8791;50.876;4.342;2023-05-10T00:47:47;13.70;99.90
17348;DHT22;8791;50.876;4.342;2023-05-10T00:50:14;13.60;99.90
17348;DHT22;8791;50.876;4.342;2023-05-10T00:52:42;13.60;99.90
17348;DHT22;8791;50.876;4.342;2023-05-10T00:55:10;13.70;99.90
17348;DHT22;8791;50.876;4.342;2023-05-10T00:57:38;13.50;99.90
17348;DHT22;8791;50.876;4.342;2023-05-10T01:00:06;13.60;99.90
17348;DHT22;8791;50.876;4.342;2023-05-10T01:02:34;13.60;99.90
17348;DHT22;8791;50.876;4.342;2023-05-10T01:05:02;13.60;99.90
17348;DHT22;8791;50.876;4.342;2023-05-10T01:07:30;13.60;99.90
17348;DHT22;8791;50.876;4.342;2023-05-10T01:09:57;13.60;99.90
17348;DHT22;8791;50.876;4.342;2023-05-10T01:12:25;13.70;99.90
17348;DHT22;8791;50.876;4.342;2023-05-10T01:14:52;13.80;99.90
17348;DHT22;8791;50.876;4.342;2023-05-10T01:17:19;13.80;99.90
17348;DHT22;8791;50.876;4.342;2023-05-10T01:19:49;13.70;99.90
17348;DHT22;8791;50.876;4.342;2023-05-10T01:22:37;13.80;99.90
17348;DHT22;8791;50.876;4.342;2023-05-10T01:25:28;13.90;99.90
17348;DHT22;8791;50.876;4.342;2023-05-10T01:28:13;13.80;99.90
17348;DHT22;8791;50.876;4.342;2023-05-10T01:31:08;13.80;99.90
17348;DHT22;8791;50.876;4.342;2023-05-10T01:33:47;13.80;99.90
17348;DHT22;8791;50.876;4.342;2023-05-10T01:36:21;13.70;99.90
17348;DHT22;8791;50.876;4.342;2023-05-10T01:38:55;13.70;99.90
17348;DHT22;8791;50.876;4.342;2023-05-10T01:41:28;13.90;99.90
17348;DHT22;8791;50.876;4.342;2023-05-10T01:44:00;13.90;99.90
17348;DHT22;8791;50.876;4.342;2023-05-10T01:46:33;13.90;99.90
17348;DHT22;8791;50.876;4.342;2023-05-10T01:49:07;14.00;99.90
17348;DHT22;8791;50.876;4.342;2023-05-10T01:51:39;14.00;99.90
17348;DHT22;8791;50.876;4.342;2023-05-10T01:54:08;13.90;99.90
17348;DHT22;8791;50.876;4.342;2023-05-10T01:56:39;13.80;99.90
17348;DHT22;8791;50.876;4.342;2023-05-10T01:59:12;13.90;99.90
17348;DHT22;8791;50.876;4.342;2023-05-10T02:01:40;13.90;99.90
17348;DHT22;8791;50.876;4.342;2023-05-10T02:04:09;13.90;99.90
17348;DHT22;8791;50.876;4.342;2023-05-10T02:06:38;14.00;99.90
17348;DHT22;8791;50.876;4.342;2023-05-10T02:09:06;14.00;99.90
17348;DHT22;8791;50.876;4.342;2023-05-10T02:11:34;14.10;99.90
17348;DHT22;8791;50.876;4.342;2023-05-10T02:14:02;14.00;99.90
17348;DHT22;8791;50.876;4.342;2023-05-10T02:16:30;13.90;99.90
17348;DHT22;8791;50.876;4.342;2023-05-10T02:18:59;13.90;99.90
17348;DHT22;8791;50.876;4.342;2023-05-10T02:21:30;13.80;99.90
17348;DHT22;8791;50.876;4.342;2023-05-10T02:23:59;13.90;99.90
17348;DHT22;8791;50.876;4.342;2023-05-10T02:26:27;14.00;99.90
17348;DHT22;8791;50.876;4.342;2023-05-10T02:28:56;14.10;99.90
17348;DHT22;8791;50.876;4.342;2023-05-10T02:31:24;14.20;99.90
17348;DHT22;8791;50.876;4.342;2023-05-10T02:33:51;14.10;99.90
17348;DHT22;8791;50.876;4.342;2023-05-10T02:36:21;14.00;99.90
17348;DHT22;8791;50.876;4.342;2023-05-10T02:38:51;14.10;99.90
17348;DHT22;8791;50.876;4.342;2023-05-10T02:41:20;14.00;99.90
17348;DHT22;8791;50.876;4.342;2023-05-10T02:43:50;14.00;99.90
17348;DHT22;8791;50.876;4.342;2023-05-10T02:46:17;14.10;99.90
17348;DHT22;8791;50.876;4.342;2023-05-10T02:48:45;14.10;99.90
17348;DHT22;8791;50.876;4.342;2023-05-10T02:51:14;14.10;99.90
17348;DHT22;8791;50.876;4.342;2023-05-10T02:53:45;14.00;99.90
17348;DHT22;8791;50.876;4.342;2023-05-10T02:56:20;13.90;99.90
17348;DHT22;8791;50.876;4.342;2023-05-10T02:58:50;13.70;99.90
17348;DHT22;8791;50.876;4.342;2023-05-10T03:01:17;13.80;99.90
17348;DHT22;8791;50.876;4.342;2023-05-10T03:03:44;13.80;99.90
17348;DHT22;8791;50.876;4.342;2023-05-10T03:06:11;13.90;99.90
17348;DHT22;8791;50.876;4.342;2023-05-10T03:08:38;14.00;99.90
17348;DHT22;8791;50.876;4.342;2023-05-10T03:11:31;14.10;99.90
17348;DHT22;8791;50.876;4.342;2023-05-10T03:14:08;14.20;99.90
17348;DHT22;8791;50.876;4.342;2023-05-10T03:16:41;14.20;99.90
17348;DHT22;8791;50.876;4.342;2023-05-10T03:19:16;14.30;99.90
17348;DHT22;8791;50.876;4.342;2023-05-10T03:21:49;14.30;99.90
17348;DHT22;8791;50.876;4.342;2023-05-10T03:24:20;14.10;99.90
17348;DHT22;8791;50.876;4.342;2023-05-10T03:26:50;14.00;99.90
17348;DHT22;8791;50.876;4.342;2023-05-10T03:29:20;14.00;99.90
17348;DHT22;8791;50.876;4.342;2023-05-10T03:31:48;14.10;99.90
17348;DHT22;8791;50.876;4.342;2023-05-10T03:34:15;14.10;99.90
17348;DHT22;8791;50.876;4.342;2023-05-10T03:36:42;14.30;99.90
17348;DHT22;8791;50.876;4.342;2023-05-10T03:39:09;14.30;99.90
17348;DHT22;8791;50.876;4.342;2023-05-10T03:41:36;14.30;99.90
17348;DHT22;8791;50.876;4.342;2023-05-10T03:44:05;14.20;99.90
17348;DHT22;8791;50.876;4.342;2023-05-10T03:46:31;14.20;99.90
17348;DHT22;8791;50.876;4.342;2023-05-10T03:48:58;14.10;99.90
17348;DHT22;8791;50.876;4.342;2023-05-10T03:51:25;14.10;99.90
17348;DHT22;8791;50.876;4.342;2023-05-10T03:53:53;14.10;99.90
17348;DHT22;8791;50.876;4.342;2023-05-10T03:56:20;14.00;99.90
17348;DHT22;8791;50.876;4.342;2023-05-10T03:58:47;14.00;99.90
17348;DHT22;8791;50.876;4.342;2023-05-10T04:01:15;13.90;99.90
17348;DHT22;8791;50.876;4.342;2023-05-10T04:03:42;13.80;99.90
17348;DHT22;8791;50.876;4.342;2023-05-10T04:06:09;13.90;99.90
17348;DHT22;8791;50.876;4.342;2023-05-10T04:08:37;14.10;99.90
17348;DHT22;8791;50.876;4.342;2023-05-10T04:11:08;14.20;99.90
17348;DHT22;8791;50.876;4.342;2023-05-10T04:13:35;14.10;99.90
17348;DHT22;8791;50.876;4.342;2023-05-10T04:16:02;14.10;99.90
17348;DHT22;8791;50.876;4.342;2023-05-10T04:18:30;14.10;99.90
17348;DHT22;8791;50.876;4.342;2023-05-10T04:20:57;13.90;99.90
17348;DHT22;8791;50.876;4.342;2023-05-10T04:23:24;14.00;99.90
17348;DHT22;8791;50.876;4.342;2023-05-10T04:25:51;14.00;99.90
17348;DHT22;8791;50.876;4.342;2023-05-10T04:28:18;14.00;99.90
17348;DHT22;8791;50.876;4.342;2023-05-10T04:30:45;13.90;99.90
17348;DHT22;8791;50.876;4.342;2023-05-10T04:33:12;14.00;99.90
17348;DHT22;8791;50.876;4.342;2023-05-10T04:35:41;13.90;99.90
17348;DHT22;8791;50.876;4.342;2023-05-10T04:38:08;13.90;99.90
17348;DHT22;8791;50.876;4.342;2023-05-10T04:40:35;13.90;99.90
17348;DHT22;8791;50.876;4.342;2023-05-10T04:43:01;14.00;99.90
17348;DHT22;8791;50.876;4.342;2023-05-10T04:45:28;14.10;99.90
17348;DHT22;8791;50.876;4.342;2023-05-10T04:47:56;14.30;99.90
17348;DHT22;8791;50.876;4.342;2023-05-10T04:50:22;14.30;99.90
17348;DHT22;8791;50.876;4.342;2023-05-10T04:52:51;14.10;99.90
17348;DHT22;8791;50.876;4.342;2023-05-10T04:55:18;14.20;99.90
17348;DHT22;8791;50.876;4.342;2023-05-10T04:57:45;14.30;99.90
17348;DHT22;8791;50.876;4.342;2023-05-10T05:00:12;14.10;99.90
17348;DHT22;8791;50.876;4.342;2023-05-10T05:02:42;14.00;99.90
17348;DHT22;8791;50.876;4.342;2023-05-10T05:05:10;14.10;99.90
17348;DHT22;8791;50.876;4.342;2023-05-10T05:07:37;14.20;99.90
17348;DHT22;8791;50.876;4.342;2023-05-10T05:10:07;14.20;99.90
17348;DHT22;8791;50.876;4.342;2023-05-10T05:12:34;14.20;99.90
17348;DHT22;8791;50.876;4.342;2023-05-10T05:15:01;14.20;99.90
17348;DHT22;8791;50.876;4.342;2023-05-10T05:17:30;14.10;99.90
17348;DHT22;8791;50.876;4.342;2023-05-10T05:19:57;14.20;99.90
17348;DHT22;8791;50.876;4.342;2023-05-10T05:22:24;14.30;99.90
17348;DHT22;8791;50.876;4.342;2023-05-10T05:24:53;14.30;99.90
17348;DHT22;8791;50.876;4.342;2023-05-10T05:27:22;14.30;99.90
17348;DHT22;8791;50.876;4.342;2023-05-10T05:29:52;14.40;99.90
17348;DHT22;8791;50.876;4.342;2023-05-10T05:32:19;14.40;99.90
17348;DHT22;8791;50.876;4.342;2023-05-10T05:34:46;14.50;99.90
17348;DHT22;8791;50.876;4.342;2023-05-10T05:37:14;14.40;99.90
17348;DHT22;8791;50.876;4.342;2023-05-10T05:39:41;14.40;99.90
17348;DHT22;8791;50.876;4.342;2023-05-10T05:42:08;14.50;99.90
17348;DHT22;8791;50.876;4.342;2023-05-10T05:44:37;14.50;99.90
17348;DHT22;8791;50.876;4.342;2023-05-10T05:47:04;14.60;99.90
17348;DHT22;8791;50.876;4.342;2023-05-10T05:49:31;14.60;99.90
17348;DHT22;8791;50.876;4.342;2023-05-10T05:51:59;14.60;99.90
17348;DHT22;8791;50.876;4.342;2023-05-10T05:54:26;14.60;99.90
17348;DHT22;8791;50.876;4.342;2023-05-10T05:56:54;14.50;99.90
17348;DHT22;8791;50.876;4.342;2023-05-10T05:59:21;14.70;99.90
17348;DHT22;8791;50.876;4.342;2023-05-10T06:01:49;14.70;99.90
17348;DHT22;8791;50.876;4.342;2023-05-10T06:04:16;14.80;99.90
17348;DHT22;8791;50.876;4.342;2023-05-10T06:06:43;14.60;99.90
17348;DHT22;8791;50.876;4.342;2023-05-10T06:09:11;14.80;99.90
17348;DHT22;8791;50.876;4.342;2023-05-10T06:11:38;14.80;99.90
17348;DHT22;8791;50.876;4.342;2023-05-10T06:14:05;15.00;99.90
17348;DHT22;8791;50.876;4.342;2023-05-10T06:16:33;15.20;99.90
17348;DHT22;8791;50.876;4.342;2023-05-10T06:19:01;15.20;99.90
17348;DHT22;8791;50.876;4.342;2023-05-10T06:21:28;15.20;99.90
17348;DHT22;8791;50.876;4.342;2023-05-10T06:23:55;15.20;99.90
17348;DHT22;8791;50.876;4.342;2023-05-10T06:26:22;15.30;99.90
17348;DHT22;8791;50.876;4.342;2023-05-10T06:28:49;14.80;99.90
17348;DHT22;8791;50.876;4.342;2023-05-10T06:31:16;14.60;99.90
17348;DHT22;8791;50.876;4.342;2023-05-10T06:33:43;14.70;99.90
17348;DHT22;8791;50.876;4.342;2023-05-10T06:36:11;14.60;99.90
17348;DHT22;8791;50.876;4.342;2023-05-10T06:38:38;14.60;99.90
17348;DHT22;8791;50.876;4.342;2023-05-10T06:41:05;14.50;99.90
17348;DHT22;8791;50.876;4.342;2023-05-10T06:43:32;14.60;99.90
17348;DHT22;8791;50.876;4.342;2023-05-10T06:45:59;14.60;99.90
17348;DHT22;8791;50.876;4.342;2023-05-10T06:48:26;14.50;99.90
17348;DHT22;8791;50.876;4.342;2023-05-10T06:50:53;14.50;99.90
17348;DHT22;8791;50.876;4.342;2023-05-10T06:53:21;14.60;99.90
17348;DHT22;8791;50.876;4.342;2023-05-10T06:55:49;14.70;99.90
17348;DHT22;8791;50.876;4.342;2023-05-10T06:58:16;14.40;99.90
17348;DHT22;8791;50.876;4.342;2023-05-10T07:00:43;14.20;99.90
17348;DHT22;8791;50.876;4.342;2023-05-10T07:03:11;14.20;99.90
17348;DHT22;8791;50.876;4.342;2023-05-10T07:05:37;14.10;99.90
17348;DHT22;8791;50.876;4.342;2023-05-10T07:08:04;14.00;99.90
17348;DHT22;8791;50.876;4.342;2023-05-10T07:10:33;13.90;99.90
17348;DHT22;8791;50.876;4.342;2023-05-10T07:13:00;13.90;99.90
17348;DHT22;8791;50.876;4.342;2023-05-10T07:15:27;14.10;99.90
17348;DHT22;8791;50.876;4.342;2023-05-10T07:17:54;14.10;99.90
17348;DHT22;8791;50.876;4.342;2023-05-10T07:20:21;14.00;99.90
17348;DHT22;8791;50.876;4.342;2023-05-10T07:22:48;13.90;99.90
17348;DHT22;8791;50.876;4.342;2023-05-10T07:25:14;14.00;99.90
17348;DHT22;8791;50.876;4.342;2023-05-10T07:27:43;13.80;99.90
17348;DHT22;8791;50.876;4.342;2023-05-10T07:30:11;13.70;99.90
17348;DHT22;8791;50.876;4.342;2023-05-10T07:32:38;14.00;99.90
17348;DHT22;8791;50.876;4.342;2023-05-10T07:35:08;14.10;99.90
17348;DHT22;8791;50.876;4.342;2023-05-10T07:37:35;14.20;99.90
17348;DHT22;8791;50.876;4.342;2023-05-10T07:40:01;14.20;99.90
17348;DHT22;8791;50.876;4.342;2023-05-10T07:42:29;14.20;99.90
17348;DHT22;8791;50.876;4.342;2023-05-10T07:44:57;14.30;99.90
17348;DHT22;8791;50.876;4.342;2023-05-10T07:47:24;14.40;99.90
17348;DHT22;8791;50.876;4.342;2023-05-10T07:49:51;14.30;99.90
17348;DHT22;8791;50.876;4.342;2023-05-10T07:52:18;14.00;99.90
17348;DHT22;8791;50.876;4.342;2023-05-10T07:54:45;13.80;99.90
17348;DHT22;8791;50.876;4.342;2023-05-10T07:57:12;13.80;99.90
17348;DHT22;8791;50.876;4.342;2023-05-10T07:59:43;13.70;99.90
17348;DHT22;8791;50.876;4.342;2023-05-10T08:02:11;13.50;99.90
17348;DHT22;8791;50.876;4.342;2023-05-10T08:04:38;13.70;99.90
17348;DHT22;8791;50.876;4.342;2023-05-10T08:07:05;13.90;99.90
17348;DHT22;8791;50.876;4.342;2023-05-10T08:09:32;13.80;99.90
17348;DHT22;8791;50.876;4.342;2023-05-10T08:11:59;13.90;99.90
17348;DHT22;8791;50.876;4.342;2023-05-10T08:14:28;14.00;99.90
17348;DHT22;8791;50.876;4.342;2023-05-10T08:16:55;14.10;99.90
17348;DHT22;8791;50.876;4.342;2023-05-10T08:19:23;13.90;99.90
17348;DHT22;8791;50.876;4.342;2023-05-10T08:21:50;14.10;99.90
17348;DHT22;8791;50.876;4.342;2023-05-10T08:24:17;14.10;99.90
17348;DHT22;8791;50.876;4.342;2023-05-10T08:26:44;14.20;99.90
17348;DHT22;8791;50.876;4.342;2023-05-10T08:29:11;14.20;99.90
17348;DHT22;8791;50.876;4.342;2023-05-10T08:31:38;14.40;99.90
17348;DHT22;8791;50.876;4.342;2023-05-10T08:34:05;14.60;99.90
17348;DHT22;8791;50.876;4.342;2023-05-10T08:36:33;14.70;99.90
17348;DHT22;8791;50.876;4.342;2023-05-10T08:39:00;14.70;99.90
17348;DHT22;8791;50.876;4.342;2023-05-10T08:41:27;14.80;99.90
17348;DHT22;8791;50.876;4.342;2023-05-10T08:43:55;14.90;99.90
17348;DHT22;8791;50.876;4.342;2023-05-10T08:46:23;14.90;99.90
17348;DHT22;8791;50.876;4.342;2023-05-10T08:48:50;14.90;99.90
17348;DHT22;8791;50.876;4.342;2023-05-10T08:51:24;15.10;99.90
17348;DHT22;8791;50.876;4.342;2023-05-10T08:53:54;15.20;99.90
17348;DHT22;8791;50.876;4.342;2023-05-10T08:56:21;15.10;99.90
17348;DHT22;8791;50.876;4.342;2023-05-10T08:59:04;15.10;99.90
17348;DHT22;8791;50.876;4.342;2023-05-10T09:01:35;14.90;99.90
17348;DHT22;8791;50.876;4.342;2023-05-10T09:04:03;14.90;99.90
17348;DHT22;8791;50.876;4.342;2023-05-10T09:06:30;14.80;99.90
17348;DHT22;8791;50.876;4.342;2023-05-10T09:08:59;14.70;99.90
17348;DHT22;8791;50.876;4.342;2023-05-10T09:11:27;14.60;99.90
17348;DHT22;8791;50.876;4.342;2023-05-10T09:13:55;14.70;99.90
17348;DHT22;8791;50.876;4.342;2023-05-10T09:16:23;14.50;99.90
17348;DHT22;8791;50.876;4.342;2023-05-10T09:18:50;14.30;99.90
17348;DHT22;8791;50.876;4.342;2023-05-10T09:21:19;14.40;99.90
17348;DHT22;8791;50.876;4.342;2023-05-10T09:23:46;14.40;99.90
17348;DHT22;8791;50.876;4.342;2023-05-10T09:26:16;14.10;99.90
17348;DHT22;8791;50.876;4.342;2023-05-10T09:28:51;14.30;99.90
17348;DHT22;8791;50.876;4.342;2023-05-10T09:31:18;14.20;99.90
17348;DHT22;8791;50.876;4.342;2023-05-10T09:33:46;14.20;99.90
17348;DHT22;8791;50.876;4.342;2023-05-10T09:36:14;14.10;99.90
17348;DHT22;8791;50.876;4.342;2023-05-10T09:38:47;14.10;99.90
17348;DHT22;8791;50.876;4.342;2023-05-10T09:41:20;14.10;99.90
17348;DHT22;8791;50.876;4.342;2023-05-10T09:43:48;14.30;99.90
17348;DHT22;8791;50.876;4.342;2023-05-10T09:46:15;14.20;99.90
17348;DHT22;8791;50.876;4.342;2023-05-10T09:48:44;14.10;99.90
17348;DHT22;8791;50.876;4.342;2023-05-10T09:51:16;14.00;99.90
17348;DHT22;8791;50.876;4.342;2023-05-10T09:53:45;14.00;99.90
17348;DHT22;8791;50.876;4.342;2023-05-10T09:56:12;13.80;99.90
17348;DHT22;8791;50.876;4.342;2023-05-10T09:58:41;14.00;99.90
17348;DHT22;8791;50.876;4.342;2023-05-10T10:01:11;14.10;99.90
17348;DHT22;8791;50.876;4.342;2023-05-10T10:03:42;13.80;99.90
17348;DHT22;8791;50.876;4.342;2023-05-10T10:06:09;14.10;99.90
17348;DHT22;8791;50.876;4.342;2023-05-10T10:08:36;14.10;99.90
17348;DHT22;8791;50.876;4.342;2023-05-10T10:11:03;14.20;99.90
17348;DHT22;8791;50.876;4.342;2023-05-10T10:13:30;14.20;99.90
17348;DHT22;8791;50.876;4.342;2023-05-10T10:15:59;14.50;99.90
17348;DHT22;8791;50.876;4.342;2023-05-10T10:18:26;14.30;99.90
17348;DHT22;8791;50.876;4.342;2023-05-10T10:20:54;14.10;99.90
17348;DHT22;8791;50.876;4.342;2023-05-10T10:23:21;14.00;99.90
17348;DHT22;8791;50.876;4.342;2023-05-10T10:25:49;14.00;99.90
17348;DHT22;8791;50.876;4.342;2023-05-10T10:28:26;14.40;99.90
17348;DHT22;8791;50.876;4.342;2023-05-10T10:30:55;14.60;99.90
17348;DHT22;8791;50.876;4.342;2023-05-10T10:33:36;14.50;99.90
17348;DHT22;8791;50.876;4.342;2023-05-10T10:36:06;14.50;99.90
17348;DHT22;8791;50.876;4.342;2023-05-10T10:38:37;14.50;99.90
17348;DHT22;8791;50.876;4.342;2023-05-10T10:41:10;14.50;99.90
17348;DHT22;8791;50.876;4.342;2023-05-10T10:43:37;14.50;99.90
17348;DHT22;8791;50.876;4.342;2023-05-10T10:46:11;14.70;99.90
17348;DHT22;8791;50.876;4.342;2023-05-10T10:48:41;14.80;99.90
17348;DHT22;8791;50.876;4.342;2023-05-10T10:51:08;15.10;99.90
17348;DHT22;8791;50.876;4.342;2023-05-10T10:53:37;15.20;99.90
17348;DHT22;8791;50.876;4.342;2023-05-10T10:56:06;15.10;99.90
17348;DHT22;8791;50.876;4.342;2023-05-10T10:58:38;15.00;99.90
17348;DHT22;8791;50.876;4.342;2023-05-10T11:01:15;15.00;99.90
17348;DHT22;8791;50.876;4.342;2023-05-10T11:04:17;15.10;99.90
17348;DHT22;8791;50.876;4.342;2023-05-10T11:06:44;14.80;99.90
17348;DHT22;8791;50.876;4.342;2023-05-10T11:09:12;15.10;99.90
17348;DHT22;8791;50.876;4.342;2023-05-10T11:11:50;15.40;99.90
17348;DHT22;8791;50.876;4.342;2023-05-10T11:14:20;15.60;99.90
17348;DHT22;8791;50.876;4.342;2023-05-10T11:16:47;15.50;99.90
17348;DHT22;8791;50.876;4.342;2023-05-10T11:19:17;15.50;99.90
17348;DHT22;8791;50.876;4.342;2023-05-10T11:21:46;15.60;99.90
17348;DHT22;8791;50.876;4.342;2023-05-10T11:24:15;15.50;99.90
17348;DHT22;8791;50.876;4.342;2023-05-10T11:26:42;15.60;99.90
17348;DHT22;8791;50.876;4.342;2023-05-10T11:29:09;15.80;99.90
17348;DHT22;8791;50.876;4.342;2023-05-10T11:31:42;15.70;99.90
17348;DHT22;8791;50.876;4.342;2023-05-10T11:34:10;15.50;99.90
17348;DHT22;8791;50.876;4.342;2023-05-10T11:36:39;15.60;99.90
17348;DHT22;8791;50.876;4.342;2023-05-10T11:39:06;15.70;99.90
17348;DHT22;8791;50.876;4.342;2023-05-10T11:41:33;15.50;99.90
17348;DHT22;8791;50.876;4.342;2023-05-10T11:44:00;15.50;99.90
17348;DHT22;8791;50.876;4.342;2023-05-10T11:46:27;15.80;99.90
17348;DHT22;8791;50.876;4.342;2023-05-10T11:48:58;15.80;99.90
17348;DHT22;8791;50.876;4.342;2023-05-10T11:51:27;15.80;99.90
17348;DHT22;8791;50.876;4.342;2023-05-10T11:53:56;15.80;99.90
17348;DHT22;8791;50.876;4.342;2023-05-10T11:56:23;15.80;99.90
17348;DHT22;8791;50.876;4.342;2023-05-10T11:58:55;15.70;99.90
17348;DHT22;8791;50.876;4.342;2023-05-10T12:01:23;15.80;99.90
17348;DHT22;8791;50.876;4.342;2023-05-10T12:03:52;15.90;99.90
17348;DHT22;8791;50.876;4.342;2023-05-10T12:06:20;16.00;99.90
17348;DHT22;8791;50.876;4.342;2023-05-10T12:08:50;16.20;99.90
17348;DHT22;8791;50.876;4.342;2023-05-10T12:11:23;16.20;99.90
17348;DHT22;8791;50.876;4.342;2023-05-10T12:13:50;16.50;99.90
17348;DHT22;8791;50.876;4.342;2023-05-10T12:16:19;16.30;99.90
17348;DHT22;8791;50.876;4.342;2023-05-10T12:18:48;16.30;99.90
17348;DHT22;8791;50.876;4.342;2023-05-10T12:21:17;16.50;99.90
17348;DHT22;8791;50.876;4.342;2023-05-10T12:23:45;16.80;99.90
17348;DHT22;8791;50.876;4.342;2023-05-10T12:26:12;16.70;99.90
17348;DHT22;8791;50.876;4.342;2023-05-10T12:28:41;16.50;99.90
17348;DHT22;8791;50.876;4.342;2023-05-10T12:31:08;16.50;99.90
17348;DHT22;8791;50.876;4.342;2023-05-10T12:33:36;16.60;99.90
17348;DHT22;8791;50.876;4.342;2023-05-10T12:36:05;16.10;99.90
17348;DHT22;8791;50.876;4.342;2023-05-10T12:38:34;15.90;99.90
17348;DHT22;8791;50.876;4.342;2023-05-10T12:41:03;16.20;99.90
17348;DHT22;8791;50.876;4.342;2023-05-10T12:43:32;16.30;99.90
17348;DHT22;8791;50.876;4.342;2023-05-10T12:46:06;16.00;99.90
17348;DHT22;8791;50.876;4.342;2023-05-10T12:48:33;16.00;99.90
17348;DHT22;8791;50.876;4.342;2023-05-10T12:51:00;16.40;99.90
17348;DHT22;8791;50.876;4.342;2023-05-10T12:53:27;16.80;99.90
17348;DHT22;8791;50.876;4.342;2023-05-10T12:55:54;17.20;99.90
17348;DHT22;8791;50.876;4.342;2023-05-10T12:58:22;17.30;99.90
17348;DHT22;8791;50.876;4.342;2023-05-10T13:00:49;17.00;99.90
17348;DHT22;8791;50.876;4.342;2023-05-10T13:03:18;17.10;99.90
17348;DHT22;8791;50.876;4.342;2023-05-10T13:05:45;17.20;99.90
17348;DHT22;8791;50.876;4.342;2023-05-10T13:08:15;17.60;99.90
17348;DHT22;8791;50.876;4.342;2023-05-10T13:10:43;18.00;99.90
17348;DHT22;8791;50.876;4.342;2023-05-10T13:13:11;18.30;99.90
17348;DHT22;8791;50.876;4.342;2023-05-10T13:15:46;18.50;99.90
17348;DHT22;8791;50.876;4.342;2023-05-10T13:18:14;18.00;99.90
17348;DHT22;8791;50.876;4.342;2023-05-10T13:20:42;17.80;99.90
17348;DHT22;8791;50.876;4.342;2023-05-10T13:23:09;18.20;99.90
17348;DHT22;8791;50.876;4.342;2023-05-10T13:25:36;18.20;99.90
17348;DHT22;8791;50.876;4.342;2023-05-10T13:28:04;18.30;99.90
17348;DHT22;8791;50.876;4.342;2023-05-10T13:30:31;18.40;99.90
17348;DHT22;8791;50.876;4.342;2023-05-10T13:32:57;18.60;99.90
17348;DHT22;8791;50.876;4.342;2023-05-10T13:35:24;18.90;99.90
17348;DHT22;8791;50.876;4.342;2023-05-10T13:37:53;18.90;99.90
17348;DHT22;8791;50.876;4.342;2023-05-10T13:40:22;19.00;99.90
17348;DHT22;8791;50.876;4.342;2023-05-10T13:42:49;18.90;99.90
17348;DHT22;8791;50.876;4.342;2023-05-10T13:45:16;19.00;99.90
17348;DHT22;8791;50.876;4.342;2023-05-10T13:47:42;18.80;99.90
17348;DHT22;8791;50.876;4.342;2023-05-10T13:50:11;18.80;99.90
17348;DHT22;8791;50.876;4.342;2023-05-10T13:52:37;18.50;99.90
17348;DHT22;8791;50.876;4.342;2023-05-10T13:55:06;18.50;99.90
17348;DHT22;8791;50.876;4.342;2023-05-10T13:57:33;18.60;99.90
17348;DHT22;8791;50.876;4.342;2023-05-10T14:00:01;18.50;99.90
17348;DHT22;8791;50.876;4.342;2023-05-10T14:02:28;18.60;99.90
17348;DHT22;8791;50.876;4.342;2023-05-10T14:04:55;18.30;99.90
17348;DHT22;8791;50.876;4.342;2023-05-10T14:07:22;18.00;99.90
17348;DHT22;8791;50.876;4.342;2023-05-10T14:09:49;18.30;99.90
17348;DHT22;8791;50.876;4.342;2023-05-10T14:12:17;18.50;99.90
17348;DHT22;8791;50.876;4.342;2023-05-10T14:14:44;18.60;99.90
17348;DHT22;8791;50.876;4.342;2023-05-10T14:17:12;18.60;99.90
17348;DHT22;8791;50.876;4.342;2023-05-10T14:19:45;18.50;99.90
17348;DHT22;8791;50.876;4.342;2023-05-10T14:22:12;18.90;99.90
17348;DHT22;8791;50.876;4.342;2023-05-10T14:24:39;18.90;99.90
17348;DHT22;8791;50.876;4.342;2023-05-10T14:27:06;18.90;99.90
17348;DHT22;8791;50.876;4.342;2023-05-10T14:29:34;18.90;99.90
17348;DHT22;8791;50.876;4.342;2023-05-10T14:32:01;19.00;99.90
17348;DHT22;8791;50.876;4.342;2023-05-10T14:34:28;19.00;99.90
17348;DHT22;8791;50.876;4.342;2023-05-10T14:36:55;18.80;99.90
17348;DHT22;8791;50.876;4.342;2023-05-10T14:39:25;18.40;99.90
17348;DHT22;8791;50.876;4.342;2023-05-10T14:41:55;18.50;99.90
17348;DHT22;8791;50.876;4.342;2023-05-10T14:44:22;18.70;99.90
17348;DHT22;8791;50.876;4.342;2023-05-10T14:46:50;18.70;99.90
17348;DHT22;8791;50.876;4.342;2023-05-10T14:49:17;18.30;99.90
17348;DHT22;8791;50.876;4.342;2023-05-10T14:51:44;18.20;99.90
17348;DHT22;8791;50.876;4.342;2023-05-10T14:54:11;18.30;99.90
17348;DHT22;8791;50.876;4.342;2023-05-10T14:56:38;18.10;99.90
17348;DHT22;8791;50.876;4.342;2023-05-10T14:59:06;17.90;99.90
17348;DHT22;8791;50.876;4.342;2023-05-10T15:01:34;17.90;99.90
17348;DHT22;8791;50.876;4.342;2023-05-10T15:04:04;17.60;99.90
17348;DHT22;8791;50.876;4.342;2023-05-10T15:06:32;17.40;99.90
17348;DHT22;8791;50.876;4.342;2023-05-10T15:08:59;17.50;99.90
17348;DHT22;8791;50.876;4.342;2023-05-10T15:11:26;17.40;99.90
17348;DHT22;8791;50.876;4.342;2023-05-10T15:13:54;17.40;99.90
17348;DHT22;8791;50.876;4.342;2023-05-10T15:16:21;17.20;99.90
17348;DHT22;8791;50.876;4.342;2023-05-10T15:18:48;17.00;99.90
17348;DHT22;8791;50.876;4.342;2023-05-10T15:21:17;16.80;99.90
17348;DHT22;8791;50.876;4.342;2023-05-10T15:23:44;16.80;99.90
17348;DHT22;8791;50.876;4.342;2023-05-10T15:26:11;16.70;99.90
17348;DHT22;8791;50.876;4.342;2023-05-10T15:28:38;16.60;99.90
17348;DHT22;8791;50.876;4.342;2023-05-10T15:31:05;16.60;99.90
17348;DHT22;8791;50.876;4.342;2023-05-10T15:33:32;16.50;99.90
17348;DHT22;8791;50.876;4.342;2023-05-10T15:35:59;16.40;99.90
17348;DHT22;8791;50.876;4.342;2023-05-10T15:38:27;16.40;99.90
17348;DHT22;8791;50.876;4.342;2023-05-10T15:40:56;16.30;99.90
17348;DHT22;8791;50.876;4.342;2023-05-10T15:43:23;16.30;99.90
17348;DHT22;8791;50.876;4.342;2023-05-10T15:45:50;16.40;99.90
17348;DHT22;8791;50.876;4.342;2023-05-10T15:48:17;16.30;99.90
17348;DHT22;8791;50.876;4.342;2023-05-10T15:50:44;16.40;99.90
17348;DHT22;8791;50.876;4.342;2023-05-10T15:53:11;16.60;99.90